createdAt,value
2023-03-06T00:00:54.449Z,79.35
2023-03-06T00:03:22.365Z,79.32
2023-03-06T00:05:52.473Z,79.57
2023-03-06T00:08:21.050Z,79.46
2023-03-06T00:10:48.112Z,79.75
2023-03-06T00:13:18.689Z,79.82
2023-03-06T00:15:46.940Z,79.95
2023-03-06T00:18:14.627Z,79.93
2023-03-06T00:20:43.463Z,80.08
2023-03-06T00:23:11.017Z,80.08
2023-03-06T00:25:41.948Z,80.14
2023-03-06T00:28:08.582Z,80.08
2023-03-06T00:30:35.523Z,80.08
2023-03-06T00:33:02.437Z,80.14
2023-03-06T00:35:29.517Z,79.95
2023-03-06T00:37:59.092Z,79.94
2023-03-06T00:40:26.733Z,80.00
2023-03-06T00:42:53.656Z,79.83
2023-03-06T00:45:20.531Z,79.94
2023-03-06T00:47:47.406Z,80.02
2023-03-06T00:50:14.672Z,80.06
2023-03-06T00:52:41.565Z,79.93
2023-03-06T00:55:09.840Z,79.94
2023-03-06T00:57:36.871Z,80.01
2023-03-06T01:00:05.602Z,80.03
2023-03-06T01:02:32.673Z,79.99
2023-03-06T01:04:59.590Z,80.12
2023-03-06T01:07:27.341Z,79.76
2023-03-06T01:09:54.116Z,80.09
2023-03-06T01:12:23.505Z,80.31
2023-03-06T01:14:50.955Z,80.46
2023-03-06T01:17:17.673Z,80.68
2023-03-06T01:19:44.602Z,80.48
2023-03-06T01:22:13.350Z,80.59
2023-03-06T01:24:40.047Z,80.47
2023-03-06T01:27:06.732Z,80.47
2023-03-06T01:29:33.641Z,80.58
2023-03-06T01:32:00.562Z,80.56
2023-03-06T01:34:27.441Z,80.59
2023-03-06T01:36:54.295Z,80.46
2023-03-06T01:39:24.397Z,80.43
2023-03-06T01:41:51.128Z,80.47
2023-03-06T01:44:17.936Z,80.36
2023-03-06T01:46:45.952Z,80.34
2023-03-06T01:49:19.658Z,80.27
2023-03-06T01:51:59.610Z,80.42
2023-03-06T01:54:31.055Z,80.26
2023-03-06T01:57:09.151Z,80.13
2023-03-06T01:59:37.960Z,80.09
2023-03-06T02:02:08.259Z,80.27
2023-03-06T02:04:38.495Z,80.00
2023-03-06T02:07:07.078Z,79.97
2023-03-06T02:09:36.090Z,79.92
2023-03-06T02:12:07.847Z,79.78
2023-03-06T02:14:34.995Z,79.85
2023-03-06T02:17:02.503Z,79.62
2023-03-06T02:19:44.706Z,79.86
2023-03-06T02:22:11.381Z,79.72
2023-03-06T02:25:01.427Z,79.54
2023-03-06T02:27:29.131Z,79.68
2023-03-06T02:29:56.002Z,79.68
2023-03-06T02:32:22.971Z,79.72
2023-03-06T02:34:54.334Z,79.54
2023-03-06T02:37:22.982Z,79.69
2023-03-06T02:39:57.339Z,79.73
2023-03-06T02:42:28.227Z,79.66
2023-03-06T02:44:56.938Z,79.56
2023-03-06T02:47:23.996Z,79.63
2023-03-06T02:49:51.028Z,79.44
2023-03-06T02:52:17.822Z,79.70
2023-03-06T02:54:44.500Z,79.58
2023-03-06T02:57:11.928Z,79.70
2023-03-06T02:59:39.112Z,79.64
2023-03-06T03:02:06.190Z,79.51
2023-03-06T03:04:34.297Z,79.63
2023-03-06T03:07:00.984Z,79.57
2023-03-06T03:09:28.056Z,79.53
2023-03-06T03:11:54.908Z,79.51
2023-03-06T03:14:24.036Z,79.55
2023-03-06T03:16:51.668Z,79.48
2023-03-06T03:19:18.422Z,79.49
2023-03-06T03:21:45.293Z,79.51
2023-03-06T03:24:12.376Z,79.57
2023-03-06T03:26:39.130Z,79.52
2023-03-06T03:29:10.177Z,79.24
2023-03-06T03:31:36.956Z,79.29
2023-03-06T03:34:03.858Z,79.24
2023-03-06T03:36:32.778Z,79.10
2023-03-06T03:38:59.877Z,79.20
2023-03-06T03:41:26.978Z,79.17
2023-03-06T03:43:53.568Z,79.00
2023-03-06T03:46:20.965Z,79.08
2023-03-06T03:48:48.388Z,79.10
2023-03-06T03:51:17.194Z,79.07
2023-03-06T03:53:47.488Z,79.05
2023-03-06T03:56:16.230Z,79.20
2023-03-06T03:58:50.311Z,78.84
2023-03-06T04:01:17.701Z,78.79
2023-03-06T04:03:44.839Z,78.95
2023-03-06T04:06:12.452Z,78.88
2023-03-06T04:08:39.342Z,78.73
2023-03-06T04:11:06.169Z,78.94
2023-03-06T04:13:33.248Z,78.84
2023-03-06T04:16:00.598Z,79.23
2023-03-06T04:18:28.048Z,79.02
2023-03-06T04:20:57.753Z,78.93
2023-03-06T04:23:24.908Z,78.90
2023-03-06T04:25:52.088Z,78.92
2023-03-06T04:28:19.526Z,79.44
2023-03-06T04:30:46.580Z,79.51
2023-03-06T04:33:13.744Z,79.65
2023-03-06T04:35:40.982Z,79.45
2023-03-06T04:38:11.670Z,79.76
2023-03-06T04:40:38.513Z,79.88
2023-03-06T04:43:05.854Z,79.59
2023-03-06T04:45:33.919Z,79.76
2023-03-06T04:48:00.717Z,79.74
2023-03-06T04:50:31.840Z,79.23
2023-03-06T04:53:00.939Z,79.26
2023-03-06T04:55:28.501Z,79.30
2023-03-06T04:57:55.577Z,79.26
2023-03-06T05:00:29.729Z,79.27
2023-03-06T05:03:01.135Z,79.02
2023-03-06T05:05:28.664Z,79.24
2023-03-06T05:07:56.054Z,78.96
2023-03-06T05:10:23.381Z,78.86
2023-03-06T05:12:50.671Z,78.63
2023-03-06T05:15:17.540Z,79.01
2023-03-06T05:17:45.547Z,78.62
2023-03-06T05:20:13.821Z,78.72
2023-03-06T05:22:41.045Z,78.67
2023-03-06T05:25:10.063Z,78.75
2023-03-06T05:27:37.415Z,78.66
2023-03-06T05:30:04.517Z,78.75
2023-03-06T05:32:32.425Z,78.55
2023-03-06T05:35:00.791Z,78.64
2023-03-06T05:37:27.506Z,78.79
2023-03-06T05:39:54.233Z,78.67
2023-03-06T05:42:21.099Z,79.37
2023-03-06T05:44:47.633Z,79.33
2023-03-06T05:47:14.457Z,79.39
2023-03-06T05:49:41.936Z,79.49
2023-03-06T05:52:08.756Z,79.33
2023-03-06T05:54:37.148Z,79.83
2023-03-06T05:57:04.678Z,79.79
2023-03-06T05:59:32.439Z,79.75
2023-03-06T06:02:00.715Z,79.77
2023-03-06T06:04:27.637Z,79.76
2023-03-06T06:06:59.273Z,79.88
2023-03-06T06:09:26.847Z,80.01
2023-03-06T06:11:59.116Z,80.17
2023-03-06T06:14:25.874Z,80.09
2023-03-06T06:16:52.754Z,80.09
2023-03-06T06:19:20.338Z,79.93
2023-03-06T06:21:49.756Z,80.06
2023-03-06T06:24:22.088Z,80.06
2023-03-06T06:26:54.846Z,80.20
2023-03-06T06:29:23.042Z,80.03
2023-03-06T06:31:51.057Z,80.32
2023-03-06T06:34:18.222Z,80.21
2023-03-06T06:36:45.215Z,80.24
2023-03-06T06:39:14.893Z,80.23
2023-03-06T06:41:59.384Z,80.23
2023-03-06T06:44:29.177Z,80.49
2023-03-06T06:49:43.046Z,80.15
2023-03-06T06:52:10.036Z,80.19
2023-03-06T06:54:37.010Z,80.19
2023-03-06T06:57:03.991Z,80.15
2023-03-06T06:59:30.771Z,79.87
2023-03-06T07:01:57.385Z,79.95
2023-03-06T07:04:24.312Z,80.07
2023-03-06T07:06:54.203Z,80.09
2023-03-06T07:09:21.716Z,79.99
2023-03-06T07:11:48.807Z,80.05
2023-03-06T07:14:15.810Z,79.84
2023-03-06T07:16:42.346Z,80.05
2023-03-06T07:19:09.348Z,79.78
2023-03-06T07:21:35.993Z,79.90
2023-03-06T07:24:02.935Z,79.92
2023-03-06T07:26:30.405Z,79.88
2023-03-06T07:28:57.994Z,79.93
2023-03-06T07:31:26.714Z,79.91
2023-03-06T07:33:54.809Z,80.11
2023-03-06T07:36:23.180Z,80.07
2023-03-06T07:38:49.867Z,80.06
2023-03-06T07:41:19.770Z,80.12
2023-03-06T07:43:48.102Z,79.96
2023-03-06T07:46:14.972Z,79.74
2023-03-06T07:48:42.541Z,79.56
2023-03-06T07:51:20.787Z,79.61
2023-03-06T07:53:48.775Z,79.75
2023-03-06T07:56:16.285Z,79.32
2023-03-06T07:58:44.974Z,79.41
2023-03-06T08:01:16.377Z,79.42
2023-03-06T08:03:43.562Z,79.39
2023-03-06T08:06:16.819Z,79.15
2023-03-06T08:08:45.858Z,79.01
2023-03-06T08:11:14.662Z,79.07
2023-03-06T08:13:42.053Z,79.03
2023-03-06T08:16:09.677Z,78.85
2023-03-06T08:18:38.983Z,78.78
2023-03-06T08:21:11.677Z,78.52
2023-03-06T08:23:39.696Z,77.84
2023-03-06T08:26:10.212Z,77.87
2023-03-06T08:28:37.029Z,77.04
2023-03-06T08:31:23.387Z,77.24
2023-03-06T08:33:50.152Z,77.27
2023-03-06T08:36:17.029Z,76.91
2023-03-06T08:38:43.696Z,76.83
2023-03-06T08:41:10.344Z,76.29
2023-03-06T08:43:37.280Z,75.86
2023-03-06T08:46:04.278Z,75.53
2023-03-06T08:48:31.216Z,75.43
2023-03-06T08:50:58.114Z,75.11
2023-03-06T08:53:40.471Z,75.32
2023-03-06T08:56:17.885Z,75.11
2023-03-06T08:58:45.070Z,74.63
2023-03-06T09:01:31.864Z,73.91
2023-03-06T09:04:01.338Z,74.21
2023-03-06T09:06:31.694Z,74.26
2023-03-06T09:08:59.417Z,74.30
2023-03-06T09:11:27.313Z,73.77
2023-03-06T09:13:54.611Z,73.99
2023-03-06T09:16:21.912Z,74.02
2023-03-06T09:18:52.242Z,74.15
2023-03-06T09:21:23.439Z,73.79
2023-03-06T09:23:50.781Z,74.15
2023-03-06T09:26:18.071Z,73.95
2023-03-06T09:28:45.895Z,74.14
2023-03-06T09:31:17.754Z,74.20
2023-03-06T09:33:44.977Z,73.46
2023-03-06T09:36:18.669Z,73.26
2023-03-06T09:38:47.637Z,73.01
2023-03-06T09:41:34.927Z,72.70
2023-03-06T09:44:04.928Z,72.76
2023-03-06T09:46:46.960Z,72.30
2023-03-06T09:49:34.778Z,72.45
2023-03-06T09:52:04.492Z,72.39
2023-03-06T09:54:43.485Z,72.61
2023-03-06T09:57:35.208Z,72.49
2023-03-06T10:00:14.029Z,73.12
2023-03-06T10:02:49.852Z,72.66
2023-03-06T10:05:21.387Z,73.21
2023-03-06T10:08:16.919Z,73.30
2023-03-06T10:10:50.396Z,73.09
2023-03-06T10:13:26.366Z,72.67
2023-03-06T10:16:02.787Z,73.44
2023-03-06T10:18:29.719Z,73.52
2023-03-06T10:21:18.434Z,73.14
2023-03-06T10:23:54.678Z,73.19
2023-03-06T10:26:31.959Z,73.26
2023-03-06T10:28:59.060Z,73.28
2023-03-06T10:31:27.502Z,73.56
2023-03-06T10:34:11.335Z,74.02
2023-03-06T10:36:38.086Z,73.54
2023-03-06T10:39:14.615Z,73.92
2023-03-06T10:41:41.613Z,74.28
2023-03-06T10:44:09.103Z,74.25
2023-03-06T10:46:44.642Z,73.47
2023-03-06T10:49:23.305Z,73.69
2023-03-06T10:52:02.261Z,73.90
2023-03-06T10:54:34.911Z,74.25
2023-03-06T10:57:26.350Z,74.54
2023-03-06T11:00:05.560Z,74.55
2023-03-06T11:02:39.114Z,74.89
2023-03-06T11:05:18.848Z,75.33
2023-03-06T11:08:00.213Z,75.52
2023-03-06T11:10:29.930Z,75.65
2023-03-06T11:13:17.291Z,75.80
2023-03-06T11:15:59.838Z,75.99
2023-03-06T11:18:42.495Z,76.53
2023-03-06T11:21:31.921Z,76.66
2023-03-06T11:24:20.346Z,76.88
2023-03-06T11:26:56.109Z,77.32
2023-03-06T11:29:37.512Z,77.38
2023-03-06T11:32:27.249Z,77.49
2023-03-06T11:34:59.450Z,77.78
2023-03-06T11:37:45.904Z,77.88
2023-03-06T11:40:20.604Z,77.59
2023-03-06T11:43:33.290Z,77.54
2023-03-06T11:46:10.166Z,77.79
2023-03-06T11:48:52.385Z,77.75
2023-03-06T11:51:27.544Z,77.85
2023-03-06T11:53:54.754Z,78.05
2023-03-06T11:56:52.015Z,78.31
2023-03-06T11:59:37.152Z,78.56
2023-03-06T12:02:26.224Z,78.63
2023-03-06T12:04:59.920Z,78.94
2023-03-06T12:07:38.674Z,79.16
2023-03-06T12:10:11.158Z,79.23
2023-03-06T12:12:57.322Z,79.62
2023-03-06T12:15:27.204Z,79.70
2023-03-06T12:18:36.095Z,79.82
2023-03-06T12:21:11.164Z,79.89
2023-03-06T12:23:59.493Z,79.96
2023-03-06T12:26:38.461Z,80.10
2023-03-06T12:29:42.836Z,80.25
2023-03-06T12:32:36.506Z,80.28
2023-03-06T12:35:25.081Z,80.47
2023-03-06T12:38:00.991Z,80.49
2023-03-06T12:40:39.182Z,80.47
2023-03-06T12:43:40.358Z,80.60
2023-03-06T12:46:19.939Z,80.67
2023-03-06T12:49:11.241Z,80.62
2023-03-06T12:51:39.805Z,81.08
2023-03-06T12:54:06.847Z,81.14
2023-03-06T12:56:34.927Z,81.28
2023-03-06T12:59:02.146Z,81.07
2023-03-06T13:01:48.157Z,81.11
2023-03-06T13:04:55.444Z,81.11
2023-03-06T13:07:52.107Z,81.20
2023-03-06T13:10:35.857Z,81.24
2023-03-06T13:13:31.604Z,81.39
2023-03-06T13:16:12.254Z,81.58
2023-03-06T13:18:42.075Z,81.98
2023-03-06T13:22:00.108Z,81.93
2023-03-06T13:24:40.604Z,81.81
2023-03-06T13:27:11.899Z,82.07
2023-03-06T13:29:38.593Z,82.24
2023-03-06T13:32:16.349Z,82.11
2023-03-06T13:34:46.373Z,82.32
2023-03-06T13:37:13.082Z,82.29
2023-03-06T13:39:52.022Z,82.37
2023-03-06T13:42:53.242Z,82.81
2023-03-06T13:45:42.589Z,82.75
2023-03-06T13:48:44.391Z,82.64
2023-03-06T13:51:24.171Z,82.68
2023-03-06T13:54:11.646Z,82.75
2023-03-06T13:56:54.201Z,83.05
2023-03-06T13:59:39.671Z,82.83
2023-03-06T14:02:22.379Z,83.04
2023-03-06T14:04:58.686Z,83.04
2023-03-06T14:07:31.758Z,83.26
2023-03-06T14:10:03.904Z,83.06
2023-03-06T14:12:35.538Z,83.24
2023-03-06T14:15:17.705Z,83.21
2023-03-06T14:18:05.083Z,83.35
2023-03-06T14:20:41.747Z,83.21
2023-03-06T14:23:20.818Z,83.49
2023-03-06T14:25:54.463Z,83.34
2023-03-06T14:28:23.929Z,83.35
2023-03-06T14:30:52.624Z,83.46
2023-03-06T14:33:31.452Z,83.43
2023-03-06T14:36:02.227Z,83.47
2023-03-06T14:38:34.185Z,83.67
2023-03-06T14:41:02.682Z,83.85
2023-03-06T14:43:31.400Z,83.94
2023-03-06T14:46:01.976Z,84.17
2023-03-06T14:48:44.493Z,84.49
2023-03-06T14:51:18.968Z,84.48
2023-03-06T14:53:48.618Z,84.51
2023-03-06T14:56:20.807Z,84.63
2023-03-06T14:59:01.133Z,84.82
2023-03-06T15:01:38.168Z,84.81
2023-03-06T15:04:43.930Z,84.84
2023-03-06T15:07:17.864Z,84.92
2023-03-06T15:09:49.154Z,84.99
2023-03-06T15:12:22.327Z,84.86
2023-03-06T15:14:55.358Z,85.01
2023-03-06T15:17:24.247Z,84.87
2023-03-06T15:19:54.050Z,84.97
2023-03-06T15:22:30.993Z,85.14
2023-03-06T15:25:08.169Z,85.16
2023-03-06T15:27:35.163Z,85.05
2023-03-06T15:30:13.305Z,84.96
2023-03-06T15:32:42.545Z,85.06
2023-03-06T15:35:52.273Z,85.17
2023-03-06T15:38:44.399Z,84.98
2023-03-06T15:41:30.820Z,85.00
2023-03-06T15:43:59.595Z,85.24
2023-03-06T15:46:27.130Z,85.11
2023-03-06T15:48:58.227Z,85.11
2023-03-06T15:51:25.309Z,85.27
2023-03-06T15:53:55.004Z,85.18
2023-03-06T15:56:32.069Z,85.13
2023-03-06T15:59:00.782Z,85.15
2023-03-06T16:01:27.981Z,85.21
2023-03-06T16:03:55.519Z,85.24
2023-03-06T16:06:24.139Z,85.17
2023-03-06T16:08:51.696Z,85.20
2023-03-06T16:11:43.317Z,85.03
2023-03-06T16:14:34.726Z,85.04
2023-03-06T16:17:02.644Z,85.12
2023-03-06T16:19:29.991Z,85.00
2023-03-06T16:21:57.143Z,85.01
2023-03-06T16:24:25.710Z,84.91
2023-03-06T16:26:54.388Z,84.91
2023-03-06T16:29:23.954Z,84.95
2023-03-06T16:31:51.530Z,84.97
2023-03-06T16:34:21.534Z,84.93
2023-03-06T16:36:49.006Z,84.94
2023-03-06T16:39:18.252Z,84.98
2023-03-06T16:41:49.040Z,84.96
2023-03-06T16:44:16.140Z,85.17
2023-03-06T16:46:45.473Z,84.98
2023-03-06T16:49:17.614Z,85.17
2023-03-06T16:51:44.922Z,85.29
2023-03-06T16:54:12.365Z,85.08
2023-03-06T16:56:39.221Z,85.13
2023-03-06T16:59:06.033Z,85.05
2023-03-06T17:01:33.414Z,85.12
2023-03-06T17:04:00.299Z,85.31
2023-03-06T17:06:28.011Z,85.11
2023-03-06T17:08:57.510Z,85.17
2023-03-06T17:11:24.555Z,85.14
2023-03-06T17:13:51.819Z,85.19
2023-03-06T17:16:18.751Z,85.25
2023-03-06T17:18:47.327Z,85.22
2023-03-06T17:21:17.444Z,85.16
2023-03-06T17:23:44.669Z,85.24
2023-03-06T17:26:18.221Z,85.26
2023-03-06T17:28:46.580Z,85.09
2023-03-06T17:31:17.462Z,85.11
2023-03-06T17:33:45.880Z,85.10
2023-03-06T17:36:16.910Z,85.14
2023-03-06T17:38:44.357Z,85.18
2023-03-06T17:41:12.562Z,85.10
2023-03-06T17:43:40.038Z,85.12
2023-03-06T17:46:08.930Z,85.00
2023-03-06T17:48:36.732Z,85.20
2023-03-06T17:51:03.952Z,85.01
2023-03-06T17:53:31.232Z,85.03
2023-03-06T17:55:59.122Z,84.85
2023-03-06T17:58:26.841Z,84.93
2023-03-06T18:00:54.018Z,84.89
2023-03-06T18:03:22.523Z,84.87
2023-03-06T18:06:03.887Z,84.82
2023-03-06T18:08:31.719Z,84.80
2023-03-06T18:10:59.943Z,84.64
2023-03-06T18:13:26.834Z,84.73
2023-03-06T18:15:54.034Z,84.66
2023-03-06T18:18:20.952Z,84.62
2023-03-06T18:20:48.045Z,84.64
2023-03-06T18:23:15.624Z,84.55
2023-03-06T18:25:43.475Z,84.65
2023-03-06T18:28:10.528Z,84.60
2023-03-06T18:30:40.833Z,84.50
2023-03-06T18:33:08.344Z,84.61
2023-03-06T18:35:36.268Z,84.57
2023-03-06T18:38:03.540Z,84.54
2023-03-06T18:40:30.358Z,84.47
2023-03-06T18:42:57.352Z,84.46
2023-03-06T18:45:24.800Z,84.53
2023-03-06T18:47:51.734Z,84.42
2023-03-06T18:50:18.814Z,84.55
2023-03-06T18:52:46.248Z,84.56
2023-03-06T18:55:13.135Z,84.17
2023-03-06T18:57:40.525Z,84.34
2023-03-06T19:00:08.491Z,84.17
2023-03-06T19:02:36.873Z,84.15
2023-03-06T19:05:04.849Z,84.01
2023-03-06T19:07:31.828Z,84.10
2023-03-06T19:09:58.803Z,84.03
2023-03-06T19:12:28.558Z,83.96
2023-03-06T19:14:56.469Z,83.85
2023-03-06T19:17:24.939Z,84.03
2023-03-06T19:19:52.034Z,83.95
2023-03-06T19:22:19.319Z,83.83
2023-03-06T19:24:47.772Z,83.87
2023-03-06T19:27:15.001Z,83.69
2023-03-06T19:29:42.502Z,83.78
2023-03-06T19:32:10.848Z,83.61
2023-03-06T19:34:38.262Z,83.31
2023-03-06T19:37:05.684Z,83.26
2023-03-06T19:39:32.520Z,83.21
2023-03-06T19:41:59.381Z,82.98
2023-03-06T19:44:26.564Z,83.20
2023-03-06T19:46:53.323Z,83.21
2023-03-06T19:49:21.801Z,83.22
2023-03-06T19:51:48.909Z,83.13
2023-03-06T19:54:16.510Z,83.23
2023-03-06T19:56:44.031Z,83.21
2023-03-06T19:59:11.006Z,83.27
2023-03-06T20:01:38.198Z,83.55
2023-03-06T20:04:05.497Z,83.29
2023-03-06T20:06:36.111Z,83.55
2023-03-06T20:09:06.417Z,83.58
2023-03-06T20:11:33.615Z,83.55
2023-03-06T20:14:02.527Z,83.77
2023-03-06T20:16:29.945Z,83.88
2023-03-06T20:18:59.601Z,83.84
2023-03-06T20:21:28.980Z,83.88
2023-03-06T20:23:57.613Z,83.95
2023-03-06T20:26:26.306Z,83.94
2023-03-06T20:28:54.276Z,83.97
2023-03-06T20:31:24.154Z,84.02
2023-03-06T20:33:52.946Z,84.16
2023-03-06T20:36:27.464Z,84.32
2023-03-06T20:38:55.051Z,84.23
2023-03-06T20:41:24.383Z,84.24
2023-03-06T20:43:51.969Z,84.28
2023-03-06T20:46:20.122Z,84.30
2023-03-06T20:48:49.166Z,84.32
2023-03-06T20:51:17.415Z,84.36
2023-03-06T20:53:46.770Z,84.47
2023-03-06T20:56:15.341Z,84.50
2023-03-06T20:58:43.001Z,84.71
2023-03-06T21:01:23.856Z,84.52
2023-03-06T21:03:51.773Z,84.71
2023-03-06T21:06:20.823Z,84.61
2023-03-06T21:08:47.833Z,84.77
2023-03-06T21:11:16.119Z,84.77
2023-03-06T21:13:43.424Z,84.80
2023-03-06T21:16:13.729Z,84.85
2023-03-06T21:18:41.120Z,84.88
2023-03-06T21:21:14.537Z,85.02
2023-03-06T21:23:42.184Z,84.96
2023-03-06T21:26:14.306Z,84.99
2023-03-06T21:28:41.583Z,84.75
2023-03-06T21:31:10.932Z,84.90
2023-03-06T21:33:38.150Z,84.90
2023-03-06T21:36:06.208Z,84.98
2023-03-06T21:38:34.545Z,84.91
2023-03-06T21:41:16.591Z,84.96
2023-03-06T21:43:44.017Z,84.91
2023-03-06T21:46:11.617Z,85.03
2023-03-06T21:48:38.547Z,85.04
2023-03-06T21:51:11.211Z,85.00
2023-03-06T21:53:41.628Z,85.00
2023-03-06T21:56:09.916Z,85.05
2023-03-06T21:58:37.275Z,85.03
2023-03-06T22:01:12.315Z,85.05
2023-03-06T22:03:39.979Z,85.17
2023-03-06T22:06:18.179Z,85.24
2023-03-06T22:08:46.201Z,85.12
2023-03-06T22:11:16.465Z,85.17
2023-03-06T22:13:45.158Z,85.34
2023-03-06T22:16:12.485Z,85.34
2023-03-06T22:18:39.625Z,85.32
2023-03-06T22:21:11.731Z,85.26
2023-03-06T22:23:40.080Z,85.35
2023-03-06T22:26:18.244Z,85.37
2023-03-06T22:28:45.755Z,85.46
2023-03-06T22:31:23.653Z,85.37
2023-03-06T22:33:52.810Z,85.46
2023-03-06T22:36:21.485Z,85.31
2023-03-06T22:38:52.309Z,85.33
2023-03-06T22:41:19.913Z,85.33
2023-03-06T22:43:47.246Z,85.34
2023-03-06T22:46:16.535Z,85.35
2023-03-06T22:48:44.172Z,85.38
2023-03-06T22:51:17.087Z,85.50
2023-03-06T22:53:45.029Z,85.56
2023-03-06T22:56:15.049Z,85.54
2023-03-06T22:58:44.216Z,85.50
2023-03-06T23:01:16.970Z,85.42
2023-03-06T23:03:47.102Z,85.31
2023-03-06T23:06:19.412Z,85.24
2023-03-06T23:08:53.648Z,85.06
2023-03-06T23:11:21.816Z,85.06
2023-03-06T23:14:07.911Z,84.71
2023-03-06T23:16:53.678Z,84.33
2023-03-06T23:19:39.735Z,84.27
2023-03-06T23:22:25.607Z,84.09
2023-03-06T23:25:11.022Z,83.85
2023-03-06T23:27:38.056Z,83.93
2023-03-06T23:30:10.119Z,83.73
2023-03-06T23:32:37.127Z,84.01
2023-03-06T23:35:04.248Z,84.01
2023-03-06T23:37:31.083Z,83.96
2023-03-06T23:39:58.354Z,83.81
2023-03-06T23:42:25.189Z,83.89
2023-03-06T23:44:51.818Z,83.67
2023-03-06T23:47:19.614Z,83.65
2023-03-06T23:49:46.478Z,83.82
2023-03-06T23:52:13.352Z,83.53
2023-03-06T23:54:40.206Z,83.18
2023-03-06T23:57:07.029Z,83.02
2023-03-06T23:59:33.760Z,82.84
